createdAt,value
2022-09-23T00:01:51.215Z,6.80
2022-09-23T00:04:18.087Z,6.90
2022-09-23T00:06:44.823Z,6.90
2022-09-23T00:11:30.399Z,6.80
2022-09-23T00:13:59.088Z,6.80
2022-09-23T00:16:28.589Z,6.80
2022-09-23T00:18:55.466Z,6.80
2022-09-23T00:21:22.385Z,6.80
2022-09-23T00:23:49.205Z,6.80
2022-09-23T00:27:48.094Z,6.70
2022-09-23T00:30:14.864Z,6.70
2022-09-23T00:32:41.631Z,6.60
2022-09-23T00:35:09.098Z,6.60
2022-09-23T00:37:35.924Z,6.60
2022-09-23T00:40:03.306Z,6.50
2022-09-23T00:42:30.113Z,6.50
2022-09-23T00:44:58.154Z,6.40
2022-09-23T00:47:33.699Z,6.40
2022-09-23T00:50:30.371Z,6.40
2022-09-23T00:52:58.655Z,6.30
2022-09-23T00:55:39.944Z,6.30
2022-09-23T00:58:08.065Z,6.30
2022-09-23T01:00:35.627Z,6.30
2022-09-23T01:03:04.237Z,6.30
2022-09-23T01:05:32.020Z,6.30
2022-09-23T01:07:59.029Z,6.30
2022-09-23T01:12:46.880Z,6.30
2022-09-23T01:15:35.430Z,6.30
2022-09-23T01:18:17.560Z,6.20
2022-09-23T01:21:18.012Z,6.20
2022-09-23T01:24:09.049Z,6.20
2022-09-23T01:26:54.383Z,6.20
2022-09-23T01:29:58.894Z,6.20
2022-09-23T01:32:43.433Z,6.20
2022-09-23T01:35:27.177Z,6.10
2022-09-23T01:42:45.394Z,6.10
2022-09-23T01:45:16.368Z,6.00
2022-09-23T01:47:50.822Z,6.00
2022-09-23T01:50:41.042Z,5.90
2022-09-23T01:53:21.065Z,5.90
2022-09-23T01:55:53.091Z,5.90
2022-09-23T01:58:48.945Z,5.90
2022-09-23T02:01:18.310Z,5.90
2022-09-23T02:03:52.788Z,5.90
2022-09-23T02:06:22.316Z,5.80
2022-09-23T02:09:11.463Z,5.80
2022-09-23T02:15:49.679Z,5.80
2022-09-23T02:18:19.967Z,5.80
2022-09-23T02:20:47.551Z,5.80
2022-09-23T02:23:25.428Z,5.80
2022-09-23T02:26:08.826Z,5.80
2022-09-23T02:28:48.968Z,5.80
2022-09-23T02:31:38.067Z,5.70
2022-09-23T02:34:19.701Z,5.70
2022-09-23T02:37:05.352Z,5.70
2022-09-23T02:39:39.756Z,5.70
2022-09-23T02:42:10.028Z,5.70
2022-09-23T02:44:36.829Z,5.70
2022-09-23T02:47:03.621Z,5.60
2022-09-23T02:49:30.857Z,5.60
2022-09-23T02:52:00.519Z,5.60
2022-09-23T02:54:28.625Z,5.60
2022-09-23T02:56:57.845Z,5.60
2022-09-23T02:59:25.649Z,5.50
2022-09-23T03:02:05.096Z,5.50
2022-09-23T03:04:58.742Z,5.50
2022-09-23T03:07:38.111Z,5.40
2022-09-23T03:10:11.571Z,5.40
2022-09-23T03:13:00.635Z,5.40
2022-09-23T03:15:48.160Z,5.30
2022-09-23T03:18:26.146Z,5.40
2022-09-23T03:20:58.656Z,5.30
2022-09-23T03:23:35.826Z,5.30
2022-09-23T03:26:14.306Z,5.30
2022-09-23T03:28:44.086Z,5.30
2022-09-23T03:31:12.662Z,5.20
2022-09-23T03:34:06.186Z,5.20
2022-09-23T03:36:51.767Z,5.20
2022-09-23T03:39:37.905Z,5.20
2022-09-23T03:42:17.247Z,5.20
2022-09-23T03:44:45.754Z,5.20
2022-09-23T03:47:14.653Z,5.20
2022-09-23T03:49:46.314Z,5.20
2022-09-23T03:52:13.164Z,5.20
2022-09-23T03:54:40.407Z,5.20
2022-09-23T03:57:09.102Z,5.20
2022-09-23T03:59:37.499Z,5.20
2022-09-23T04:02:04.530Z,5.20
2022-09-23T04:04:34.201Z,5.20
2022-09-23T04:07:01.440Z,5.20
2022-09-23T04:09:59.915Z,5.20
2022-09-23T04:12:27.539Z,5.20
2022-09-23T04:15:00.863Z,5.20
2022-09-23T04:17:27.653Z,5.20
2022-09-23T04:19:54.399Z,5.20
2022-09-23T04:22:21.147Z,5.20
2022-09-23T04:24:49.495Z,5.10
2022-09-23T04:28:09.422Z,5.30
2022-09-23T04:30:41.583Z,5.10
2022-09-23T04:33:08.617Z,5.10
2022-09-23T04:35:39.919Z,5.10
2022-09-23T04:38:07.203Z,5.10
2022-09-23T04:40:34.291Z,5.10
2022-09-23T04:43:01.210Z,5.00
2022-09-23T04:45:28.001Z,5.00
2022-09-23T04:47:56.012Z,5.00
2022-09-23T04:54:27.540Z,5.00
2022-09-23T04:58:23.230Z,5.00
2022-09-23T05:13:13.736Z,5.00
2022-09-23T05:16:44.248Z,5.00
2022-09-23T05:19:13.666Z,4.90
2022-09-23T05:21:40.593Z,5.10
2022-09-23T05:24:07.453Z,5.20
2022-09-23T05:26:34.319Z,5.30
2022-09-23T05:29:01.215Z,5.40
2022-09-23T05:31:29.060Z,5.60
2022-09-23T05:35:27.502Z,5.80
2022-09-23T05:37:54.347Z,6.00
2022-09-23T05:41:50.660Z,6.50
2022-09-23T05:44:17.582Z,6.60
2022-09-23T05:46:44.536Z,7.00
2022-09-23T05:51:21.491Z,7.30
2022-09-23T05:55:54.450Z,7.70
2022-09-23T06:00:49.351Z,8.40
2022-09-23T06:03:17.359Z,8.60
2022-09-23T06:05:44.236Z,9.00
2022-09-23T06:08:11.443Z,9.30
2022-09-23T06:10:39.292Z,9.30
2022-09-23T06:13:06.301Z,9.50
2022-09-23T06:15:33.154Z,9.70
2022-09-23T06:20:42.298Z,10.00
2022-09-23T06:23:10.952Z,10.10
2022-09-23T06:25:40.895Z,10.20
2022-09-23T06:28:12.559Z,10.40
2022-09-23T06:30:42.730Z,10.40
2022-09-23T06:35:00.491Z,10.70
2022-09-23T06:37:27.947Z,10.80
2022-09-23T06:39:54.891Z,11.00
2022-09-23T06:42:21.702Z,11.00
2022-09-23T06:44:48.536Z,11.10
2022-09-23T06:47:15.387Z,11.10
2022-09-23T06:49:42.206Z,11.10
2022-09-23T06:53:48.816Z,11.40
2022-09-23T06:56:16.740Z,11.70
2022-09-23T07:02:00.857Z,11.90
2022-09-23T07:04:29.412Z,12.10
2022-09-23T07:06:56.372Z,12.30
2022-09-23T07:09:23.203Z,12.40
2022-09-23T07:11:50.062Z,12.60
2022-09-23T07:14:16.958Z,12.90
2022-09-23T07:16:43.693Z,13.30
2022-09-23T07:19:12.401Z,13.40
2022-09-23T07:21:39.337Z,13.50
2022-09-23T07:24:06.482Z,13.70
2022-09-23T07:26:34.224Z,13.90
2022-09-23T07:29:07.585Z,13.90
2022-09-23T07:31:39.625Z,14.10
2022-09-23T07:34:08.603Z,14.20
2022-09-23T07:36:37.517Z,14.30
2022-09-23T07:39:05.248Z,14.60
2022-09-23T07:41:32.219Z,14.60
2022-09-23T07:44:00.394Z,14.70
2022-09-23T07:46:28.660Z,14.80
2022-09-23T07:48:55.817Z,15.10
2022-09-23T07:51:25.412Z,15.20
2022-09-23T07:53:52.912Z,15.20
2022-09-23T07:56:20.411Z,14.90
2022-09-23T07:59:00.005Z,14.80
2022-09-23T08:01:29.299Z,14.60
2022-09-23T08:03:57.713Z,14.60
2022-09-23T08:06:24.953Z,14.60
2022-09-23T08:08:53.477Z,14.70
2022-09-23T08:11:20.570Z,14.60
2022-09-23T08:13:47.789Z,14.60
2022-09-23T08:16:14.734Z,14.60
2022-09-23T08:18:44.833Z,14.70
2022-09-23T08:21:11.899Z,14.70
2022-09-23T08:23:38.767Z,14.90
2022-09-23T08:26:08.883Z,15.00
2022-09-23T08:28:38.874Z,15.10
2022-09-23T08:31:05.964Z,15.30
2022-09-23T08:33:32.833Z,15.40
2022-09-23T08:36:00.890Z,15.50
2022-09-23T08:38:28.157Z,15.60
2022-09-23T08:41:03.710Z,15.80
2022-09-23T08:43:31.445Z,16.00
2022-09-23T08:46:01.451Z,16.20
2022-09-23T08:48:33.863Z,16.50
2022-09-23T08:51:10.900Z,16.90
2022-09-23T08:53:37.901Z,17.00
2022-09-23T08:56:11.305Z,17.20
2022-09-23T08:59:00.151Z,17.40
2022-09-23T09:01:39.010Z,17.50
2022-09-23T09:04:14.969Z,17.60
2022-09-23T09:06:52.990Z,17.80
2022-09-23T09:09:47.077Z,18.00
2022-09-23T09:12:22.415Z,18.30
2022-09-23T09:15:10.949Z,18.40
2022-09-23T09:17:38.790Z,18.40
2022-09-23T09:20:43.691Z,18.40
2022-09-23T09:23:23.894Z,18.30
2022-09-23T09:25:55.240Z,18.40
2022-09-23T09:28:30.877Z,18.40
2022-09-23T09:31:01.632Z,18.30
2022-09-23T09:33:32.334Z,18.40
2022-09-23T09:36:09.172Z,18.40
2022-09-23T09:38:36.672Z,18.50
2022-09-23T09:41:14.411Z,18.60
2022-09-23T09:43:44.198Z,18.60
2022-09-23T09:46:26.765Z,18.30
2022-09-23T09:49:02.514Z,18.70
2022-09-23T09:51:29.593Z,18.90
2022-09-23T09:54:14.793Z,19.00
2022-09-23T09:56:44.672Z,19.00
2022-09-23T09:59:15.696Z,19.00
2022-09-23T10:01:42.599Z,19.00
2022-09-23T10:04:35.090Z,19.10
2022-09-23T10:07:14.660Z,19.30
2022-09-23T10:09:48.433Z,19.60
2022-09-23T10:12:19.914Z,19.70
2022-09-23T10:14:50.596Z,19.80
2022-09-23T10:17:29.706Z,19.80
2022-09-23T10:20:15.121Z,19.70
2022-09-23T10:22:42.581Z,19.70
2022-09-23T10:25:17.036Z,19.90
2022-09-23T10:27:45.593Z,19.80
2022-09-23T10:30:25.690Z,19.70
2022-09-23T10:32:54.945Z,19.50
2022-09-23T10:35:23.881Z,19.50
2022-09-23T10:37:54.753Z,19.60
2022-09-23T10:40:46.664Z,19.60
2022-09-23T10:44:00.443Z,19.40
2022-09-23T10:46:45.936Z,19.30
2022-09-23T10:49:35.655Z,19.40
2022-09-23T10:52:02.540Z,19.40
2022-09-23T10:55:06.998Z,19.40
2022-09-23T10:57:46.196Z,19.50
2022-09-23T11:00:22.396Z,19.70
2022-09-23T11:03:17.512Z,19.90
2022-09-23T11:05:56.687Z,20.10
2022-09-23T11:08:29.303Z,20.20
2022-09-23T11:11:34.164Z,20.20
2022-09-23T11:14:38.769Z,20.30
2022-09-23T11:17:14.638Z,20.30
2022-09-23T11:19:53.845Z,20.10
2022-09-23T11:22:53.083Z,19.90
2022-09-23T11:25:25.738Z,19.90
2022-09-23T11:28:05.818Z,19.90
2022-09-23T11:30:56.008Z,20.00
2022-09-23T11:33:41.547Z,20.20
2022-09-23T11:36:36.171Z,20.30
2022-09-23T11:39:08.775Z,20.40
2022-09-23T11:41:38.013Z,20.50
2022-09-23T11:44:23.647Z,20.70
2022-09-23T11:46:53.461Z,20.60
2022-09-23T11:49:27.472Z,20.60
2022-09-23T11:52:12.919Z,20.60
2022-09-23T11:54:56.226Z,20.60
2022-09-23T11:57:46.661Z,20.70
2022-09-23T12:00:26.675Z,20.80
2022-09-23T12:03:09.326Z,20.90
2022-09-23T12:05:41.814Z,20.80
2022-09-23T12:08:32.602Z,20.80
2022-09-23T12:11:20.906Z,20.70
2022-09-23T12:14:29.366Z,20.70
2022-09-23T12:17:01.727Z,20.90
2022-09-23T12:20:10.111Z,21.20
2022-09-23T12:22:45.910Z,21.20
2022-09-23T12:25:18.851Z,21.20
2022-09-23T12:27:49.738Z,21.20
2022-09-23T12:30:24.803Z,21.20
2022-09-23T12:32:51.692Z,21.20
2022-09-23T12:35:32.203Z,21.20
2022-09-23T12:38:00.976Z,21.20
2022-09-23T12:40:40.873Z,21.30
2022-09-23T12:43:34.833Z,21.40
2022-09-23T12:46:19.884Z,21.50
2022-09-23T12:48:59.087Z,21.50
2022-09-23T12:51:27.322Z,21.40
2022-09-23T12:53:56.305Z,21.20
2022-09-23T12:56:25.017Z,21.20
2022-09-23T12:58:51.808Z,21.30
2022-09-23T13:01:20.295Z,21.40
2022-09-23T13:04:10.088Z,21.50
2022-09-23T13:07:06.394Z,21.70
2022-09-23T13:09:39.280Z,21.90
2022-09-23T13:12:08.406Z,22.00
2022-09-23T13:14:35.304Z,22.10
2022-09-23T13:17:02.221Z,22.00
2022-09-23T13:19:29.049Z,22.10
2022-09-23T13:22:02.037Z,22.30
2022-09-23T13:24:47.812Z,22.50
2022-09-23T13:27:18.582Z,22.70
2022-09-23T13:29:56.509Z,22.90
2022-09-23T13:32:27.913Z,23.30
2022-09-23T13:35:13.211Z,23.60
2022-09-23T13:37:47.613Z,23.80
2022-09-23T13:40:27.182Z,23.80
2022-09-23T13:43:04.682Z,23.70
2022-09-23T13:45:32.148Z,23.60
2022-09-23T13:48:07.383Z,23.60
2022-09-23T13:50:35.254Z,23.80
2022-09-23T13:53:05.723Z,23.90
2022-09-23T13:55:37.293Z,23.90
2022-09-23T13:58:11.885Z,24.20
2022-09-23T14:00:38.808Z,24.30
2022-09-23T14:03:21.215Z,24.30
2022-09-23T14:05:48.063Z,24.10
2022-09-23T14:08:14.920Z,23.80
2022-09-23T14:10:45.915Z,23.30
2022-09-23T14:13:22.358Z,22.80
2022-09-23T14:15:53.878Z,22.30
2022-09-23T14:18:33.111Z,21.80
2022-09-23T14:21:00.064Z,21.50
2022-09-23T14:23:26.966Z,21.20
2022-09-23T14:25:53.969Z,21.00
2022-09-23T14:28:22.652Z,20.80
2022-09-23T14:30:54.055Z,20.70
2022-09-23T14:33:30.259Z,20.60
2022-09-23T14:36:06.556Z,20.50
2022-09-23T14:38:51.442Z,20.50
2022-09-23T14:41:23.953Z,20.50
2022-09-23T14:44:01.107Z,20.40
2022-09-23T14:46:29.849Z,20.50
2022-09-23T14:49:16.130Z,20.60
2022-09-23T14:52:00.661Z,20.70
2022-09-23T14:54:38.876Z,20.70
2022-09-23T14:57:23.807Z,20.70
2022-09-23T15:00:00.334Z,20.60
2022-09-23T15:02:31.432Z,20.60
2022-09-23T15:05:10.411Z,20.60
2022-09-23T15:07:37.615Z,20.40
2022-09-23T15:10:27.802Z,20.40
2022-09-23T15:13:04.968Z,20.40
2022-09-23T15:15:31.925Z,20.40
2022-09-23T15:18:14.416Z,20.30
2022-09-23T15:20:41.189Z,20.10
2022-09-23T15:23:35.584Z,19.80
2022-09-23T15:26:06.708Z,19.60
2022-09-23T15:28:33.493Z,19.50
2022-09-23T15:31:00.304Z,19.40
2022-09-23T15:33:28.258Z,19.20
2022-09-23T15:35:55.114Z,19.00
2022-09-23T15:38:22.026Z,18.90
2022-09-23T15:40:49.193Z,18.70
2022-09-23T15:43:21.086Z,18.60
2022-09-23T15:45:53.126Z,18.50
2022-09-23T15:48:25.179Z,18.40
2022-09-23T15:50:52.379Z,18.40
2022-09-23T15:53:26.090Z,18.30
2022-09-23T15:55:53.274Z,18.20
2022-09-23T15:58:20.852Z,18.10
2022-09-23T16:00:56.267Z,18.00
2022-09-23T16:03:33.407Z,17.90
2022-09-23T16:06:02.336Z,17.70
2022-09-23T16:08:29.720Z,17.50
2022-09-23T16:10:56.556Z,17.50
2022-09-23T16:13:23.360Z,17.40
2022-09-23T16:15:50.191Z,17.30
2022-09-23T16:18:17.034Z,17.20
2022-09-23T16:20:44.699Z,17.10
2022-09-23T16:23:35.902Z,17.00
2022-09-23T16:26:31.917Z,16.90
2022-09-23T16:28:58.790Z,16.90
2022-09-23T16:31:26.704Z,16.80
2022-09-23T16:33:53.718Z,16.70
2022-09-23T16:36:28.840Z,16.60
2022-09-23T16:38:55.878Z,16.40
2022-09-23T16:41:23.501Z,16.30
2022-09-23T16:43:51.007Z,16.20
2022-09-23T16:46:18.254Z,16.10
2022-09-23T16:48:51.412Z,15.90
2022-09-23T16:51:24.265Z,15.80
2022-09-23T16:53:51.552Z,15.60
2022-09-23T16:56:24.234Z,15.50
2022-09-23T16:58:54.274Z,15.40
2022-09-23T17:01:44.826Z,15.20
2022-09-23T17:04:12.092Z,15.10
2022-09-23T17:06:50.043Z,15.00
2022-09-23T17:09:25.625Z,14.90
2022-09-23T17:12:15.804Z,14.80
2022-09-23T17:14:43.711Z,14.70
2022-09-23T17:17:10.466Z,14.60
2022-09-23T17:19:38.242Z,14.50
2022-09-23T17:22:05.298Z,14.40
2022-09-23T17:24:32.052Z,14.30
2022-09-23T17:26:58.773Z,14.20
2022-09-23T17:29:26.891Z,14.10
2022-09-23T17:31:54.106Z,14.00
2022-09-23T17:34:20.944Z,13.90
2022-09-23T17:36:47.689Z,13.80
2022-09-23T17:39:14.440Z,13.80
2022-09-23T17:41:41.191Z,13.70
2022-09-23T17:44:11.378Z,13.70
2022-09-23T17:46:38.291Z,13.60
2022-09-23T17:49:06.779Z,13.50
2022-09-23T17:51:33.606Z,13.50
2022-09-23T17:54:00.418Z,13.40
2022-09-23T17:56:29.844Z,13.30
2022-09-23T17:58:59.022Z,13.30
2022-09-23T18:01:26.129Z,13.20
2022-09-23T18:03:59.403Z,13.10
2022-09-23T18:06:27.948Z,13.10
2022-09-23T18:08:56.063Z,13.00
2022-09-23T18:11:27.425Z,13.00
2022-09-23T18:13:58.397Z,12.90
2022-09-23T18:16:27.097Z,12.90
2022-09-23T18:18:55.712Z,12.80
2022-09-23T18:21:23.383Z,12.70
2022-09-23T18:23:50.544Z,12.60
2022-09-23T18:26:19.140Z,12.60
2022-09-23T18:28:46.016Z,12.50
2022-09-23T18:31:13.527Z,12.40
2022-09-23T18:34:43.566Z,12.30
2022-09-23T18:37:15.766Z,12.30
2022-09-23T18:39:43.443Z,12.20
2022-09-23T18:42:10.992Z,12.20
2022-09-23T18:45:55.182Z,12.10
2022-09-23T18:48:40.697Z,12.00
2022-09-23T18:51:08.962Z,12.00
2022-09-23T18:53:36.021Z,11.90
2022-09-23T18:56:10.207Z,11.80
2022-09-23T18:58:37.269Z,11.70
2022-09-23T19:01:08.562Z,11.70
2022-09-23T19:03:35.920Z,11.60
2022-09-23T19:06:06.209Z,11.60
2022-09-23T19:08:33.269Z,11.50
2022-09-23T19:11:02.696Z,11.50
2022-09-23T19:13:30.588Z,11.50
2022-09-23T19:19:30.115Z,11.50
2022-09-23T19:22:47.361Z,11.40
2022-09-23T19:25:14.251Z,11.40
2022-09-23T19:27:40.973Z,11.40
2022-09-23T19:30:08.526Z,11.30
2022-09-23T19:32:35.324Z,11.30
2022-09-23T19:35:02.181Z,11.30
2022-09-23T19:37:28.976Z,11.30
2022-09-23T19:39:55.803Z,11.30
2022-09-23T19:42:23.137Z,11.20
2022-09-23T19:44:50.263Z,11.20
2022-09-23T19:47:17.458Z,11.10
2022-09-23T19:49:44.387Z,11.10
2022-09-23T19:52:11.200Z,11.00
2022-09-23T19:54:38.425Z,11.00
2022-09-23T19:57:05.224Z,11.00
2022-09-23T19:59:32.104Z,11.00
2022-09-23T20:01:58.887Z,11.00
2022-09-23T20:04:26.174Z,11.00
2022-09-23T20:06:52.960Z,11.00
2022-09-23T20:09:19.953Z,11.00
2022-09-23T20:11:46.848Z,10.90
2022-09-23T20:14:13.843Z,10.90
2022-09-23T20:16:40.749Z,10.90
2022-09-23T20:19:07.745Z,10.80
2022-09-23T20:21:35.377Z,10.80
2022-09-23T20:24:05.282Z,10.70
2022-09-23T20:26:50.690Z,10.60
2022-09-23T20:29:18.370Z,10.60
2022-09-23T20:31:45.241Z,10.50
2022-09-23T20:34:12.300Z,10.50
2022-09-23T20:36:40.942Z,10.50
2022-09-23T20:39:08.050Z,10.50
2022-09-23T20:41:37.630Z,10.40
2022-09-23T20:46:35.936Z,10.40
2022-09-23T20:49:03.655Z,10.40
2022-09-23T20:51:33.197Z,10.40
2022-09-23T20:54:00.362Z,10.30
2022-09-23T20:56:27.582Z,10.30
2022-09-23T20:58:54.447Z,10.30
2022-09-23T21:04:53.388Z,10.30
2022-09-23T21:07:20.131Z,10.30
2022-09-23T21:09:46.901Z,10.20
2022-09-23T21:12:13.666Z,10.20
2022-09-23T21:14:40.419Z,10.20
2022-09-23T21:17:07.223Z,10.20
2022-09-23T21:19:38.045Z,10.20
2022-09-23T21:22:04.769Z,10.10
2022-09-23T21:25:08.461Z,10.10
2022-09-23T21:27:18.528Z,10.10
2022-09-23T21:29:45.268Z,10.10
2022-09-23T21:32:11.967Z,10.00
2022-09-23T21:34:38.748Z,10.00
2022-09-23T21:37:06.284Z,10.00
2022-09-23T21:39:33.031Z,10.00
2022-09-23T21:41:59.738Z,10.00
2022-09-23T21:44:26.474Z,10.00
2022-09-23T21:46:54.420Z,10.00
2022-09-23T21:49:21.654Z,10.00
2022-09-23T21:51:49.023Z,10.00
2022-09-23T21:54:16.901Z,10.10
2022-09-23T21:56:43.989Z,10.00
2022-09-23T21:59:10.795Z,10.10
2022-09-23T22:01:39.135Z,10.10
2022-09-23T22:04:10.671Z,10.10
2022-09-23T22:06:38.403Z,10.10
2022-09-23T22:09:08.925Z,10.10
2022-09-23T22:11:54.635Z,10.10
2022-09-23T22:14:25.522Z,10.00
2022-09-23T22:16:55.924Z,10.00
2022-09-23T22:19:24.047Z,10.00
2022-09-23T22:21:52.544Z,10.00
2022-09-23T22:24:19.351Z,10.00
2022-09-23T22:26:46.080Z,10.00
2022-09-23T22:29:32.979Z,9.90
2022-09-23T22:32:18.928Z,9.90
2022-09-23T22:34:52.545Z,9.90
2022-09-23T22:37:21.094Z,9.80
2022-09-23T22:39:47.850Z,9.80
2022-09-23T22:42:14.689Z,9.80
2022-09-23T22:44:41.494Z,9.90
2022-09-23T22:47:09.236Z,9.90
2022-09-23T22:49:36.105Z,9.90
2022-09-23T22:52:04.066Z,9.90
2022-09-23T22:54:33.954Z,10.00
2022-09-23T22:57:04.199Z,10.00
2022-09-23T22:59:31.013Z,10.00
2022-09-23T23:01:59.922Z,10.00
2022-09-23T23:04:27.572Z,10.00
2022-09-23T23:06:54.283Z,10.00
2022-09-23T23:09:21.013Z,10.00
2022-09-23T23:11:47.707Z,10.00
2022-09-23T23:14:16.394Z,9.90
2022-09-23T23:16:43.931Z,9.90
2022-09-23T23:19:13.578Z,9.90
2022-09-23T23:21:43.277Z,9.90
2022-09-23T23:24:20.852Z,9.90
2022-09-23T23:26:47.738Z,9.90
2022-09-23T23:29:15.774Z,9.90
2022-09-23T23:31:42.578Z,9.90
2022-09-23T23:34:14.064Z,9.90
2022-09-23T23:36:41.405Z,9.90
2022-09-23T23:39:08.206Z,9.90
2022-09-23T23:41:34.987Z,9.90
2022-09-23T23:44:01.924Z,9.90
2022-09-23T23:46:29.606Z,9.90
2022-09-23T23:48:56.607Z,9.90
2022-09-23T23:51:23.477Z,9.90
2022-09-23T23:53:50.281Z,9.90
2022-09-23T23:56:18.550Z,9.90
2022-09-23T23:58:45.368Z,9.90
